Time;durP1;ratioP1;P1;durP2;ratioP2;P2;SDS_P1;SDS_P2;PMS_P1;PMS_P2;Temp;Humidity;BMP_temperature;BMP_pressure;BME280_temperature;BME280_humidity;BME280_pressure;Samples;Min_cycle;Max_cycle;Signal;HPM_P1;HPM_P2
2023/07/13 00:01:51;;;;;;;;;;;25.10;54.50;;;;;;5049879;28;19917;-53
2023/07/13 00:04:18;;;;;;;;;;;25.10;54.50;;;;;;5053763;28;20005;-53
2023/07/13 00:06:44;;;;;;;;;;;25.10;54.60;;;;;;5051405;28;19924;-53
2023/07/13 00:09:13;;;;;;;;;;;25.00;54.60;;;;;;5052319;28;19999;-53
2023/07/13 00:11:39;;;;;;;;;;;25.00;54.70;;;;;;5052062;28;19932;-54
2023/07/13 00:14:05;;;;;;;;;;;24.90;54.70;;;;;;5053258;28;20344;-53
2023/07/13 00:16:30;;;;;;;;;;;24.90;54.80;;;;;;5050204;28;19924;-53
2023/07/13 00:18:56;;;;;;;;;;;24.90;54.90;;;;;;5056278;28;20019;-53
2023/07/13 00:21:21;;;;;;;;;;;24.90;55.00;;;;;;5052941;28;19921;-53
2023/07/13 00:23:48;;;;;;;;;;;24.90;55.00;;;;;;5043553;28;19913;-53
2023/07/13 00:26:13;;;;;;;;;;;24.90;55.10;;;;;;5051953;28;19978;-53
2023/07/13 00:28:39;;;;;;;;;;;24.90;55.10;;;;;;5054767;28;20360;-53
2023/07/13 00:31:05;;;;;;;;;;;24.90;55.10;;;;;;5051806;28;19924;-54
2023/07/13 00:33:31;;;;;;;;;;;24.90;55.00;;;;;;5057090;28;19920;-53
2023/07/13 00:35:57;;;;;;;;;;;24.90;55.10;;;;;;5052317;28;19923;-53
2023/07/13 00:38:22;;;;;;;;;;;24.90;55.10;;;;;;5051422;28;19920;-53
2023/07/13 00:40:48;;;;;;;;;;;24.90;55.40;;;;;;5050312;28;19921;-53
2023/07/13 00:43:15;;;;;;;;;;;24.90;55.80;;;;;;5050457;28;19943;-53
2023/07/13 00:45:43;;;;;;;;;;;24.90;55.60;;;;;;5049052;28;20434;-53
2023/07/13 00:48:09;;;;;;;;;;;24.90;56.00;;;;;;5054257;28;20054;-53
2023/07/13 00:50:34;;;;;;;;;;;24.90;56.10;;;;;;5052240;28;20359;-53
2023/07/13 00:53:00;;;;;;;;;;;24.90;56.20;;;;;;5056069;28;19924;-53
2023/07/13 00:55:25;;;;;;;;;;;24.90;56.20;;;;;;5058395;28;19959;-53
2023/07/13 00:57:50;;;;;;;;;;;24.80;56.40;;;;;;5059563;28;19920;-53
2023/07/13 01:00:17;;;;;;;;;;;24.80;56.50;;;;;;5062987;28;20361;-53
2023/07/13 01:02:44;;;;;;;;;;;24.80;56.60;;;;;;5058477;28;19916;-53
2023/07/13 01:05:10;;;;;;;;;;;24.80;56.50;;;;;;5072731;28;19927;-53
2023/07/13 01:07:36;;;;;;;;;;;24.80;56.70;;;;;;5065802;28;19959;-53
2023/07/13 01:10:02;;;;;;;;;;;24.80;56.50;;;;;;5053025;28;20250;-53
2023/07/13 01:12:27;;;;;;;;;;;24.80;56.50;;;;;;5072412;28;20326;-53
2023/07/13 01:15:00;;;;;;;;;;;24.80;56.60;;;;;;5067055;28;19920;-53
2023/07/13 01:17:25;;;;;;;;;;;24.70;56.70;;;;;;5060417;28;19917;-53
2023/07/13 01:19:51;;;;;;;;;;;24.70;56.70;;;;;;5051828;28;20011;-53
2023/07/13 01:22:17;;;;;;;;;;;24.70;56.80;;;;;;5052151;28;20361;-53
2023/07/13 01:24:44;;;;;;;;;;;24.70;57.00;;;;;;5051818;28;19913;-53
2023/07/13 01:27:10;;;;;;;;;;;24.70;57.10;;;;;;5053734;28;19945;-53
2023/07/13 01:29:41;;;;;;;;;;;24.60;57.10;;;;;;5051311;28;19909;-53
2023/07/13 01:32:11;;;;;;;;;;;24.60;57.20;;;;;;5073789;28;19909;-53
2023/07/13 01:34:37;;;;;;;;;;;24.60;57.30;;;;;;5059758;28;19960;-53
2023/07/13 01:37:03;;;;;;;;;;;24.60;57.30;;;;;;5053852;28;20338;-53
2023/07/13 01:39:28;;;;;;;;;;;24.60;57.40;;;;;;5051757;28;19965;-53
2023/07/13 01:41:54;;;;;;;;;;;24.60;57.40;;;;;;5051969;28;19912;-53
2023/07/13 01:44:19;;;;;;;;;;;24.60;57.30;;;;;;5067417;28;19923;-54
2023/07/13 01:46:45;;;;;;;;;;;24.50;57.40;;;;;;5066443;28;19924;-53
2023/07/13 01:49:10;;;;;;;;;;;24.50;57.40;;;;;;5064990;28;20288;-53
2023/07/13 01:51:35;;;;;;;;;;;24.50;57.60;;;;;;5068923;28;19912;-53
2023/07/13 01:54:01;;;;;;;;;;;24.50;57.60;;;;;;5054087;28;19913;-52
2023/07/13 01:56:26;;;;;;;;;;;24.50;57.60;;;;;;5071905;28;20019;-52
2023/07/13 01:58:52;;;;;;;;;;;24.50;57.60;;;;;;5072242;28;19958;-53
2023/07/13 02:01:17;;;;;;;;;;;24.60;57.70;;;;;;5063323;28;20008;-52
2023/07/13 02:03:43;;;;;;;;;;;24.50;57.60;;;;;;5068955;28;19917;-53
2023/07/13 02:06:08;;;;;;;;;;;24.50;57.60;;;;;;5063379;28;20270;-53
2023/07/13 02:08:34;;;;;;;;;;;24.50;57.70;;;;;;5059255;28;19934;-53
2023/07/13 02:11:00;;;;;;;;;;;24.50;57.70;;;;;;5052541;28;19920;-53
2023/07/13 02:13:25;;;;;;;;;;;24.50;57.70;;;;;;5052774;28;19912;-53
2023/07/13 02:15:51;;;;;;;;;;;24.50;57.80;;;;;;5064795;28;20364;-53
2023/07/13 02:18:17;;;;;;;;;;;24.50;57.70;;;;;;5051921;28;20370;-53
2023/07/13 02:20:42;;;;;;;;;;;24.50;57.80;;;;;;5063179;28;19919;-52
2023/07/13 02:23:08;;;;;;;;;;;24.50;57.90;;;;;;5070871;28;19908;-53
2023/07/13 02:25:33;;;;;;;;;;;24.50;57.80;;;;;;5065206;28;20266;-52
2023/07/13 02:27:59;;;;;;;;;;;24.40;57.90;;;;;;5048187;28;19913;-52
2023/07/13 02:30:24;;;;;;;;;;;24.40;57.90;;;;;;5049327;28;19920;-53
2023/07/13 02:32:50;;;;;;;;;;;24.40;57.90;;;;;;5048857;28;19920;-53
2023/07/13 02:35:15;;;;;;;;;;;24.40;57.80;;;;;;5047872;28;19991;-53
2023/07/13 02:37:41;;;;;;;;;;;24.40;57.70;;;;;;5052461;28;19916;-53
2023/07/13 02:40:08;;;;;;;;;;;24.40;57.70;;;;;;5056395;28;20507;-53
2023/07/13 02:42:34;;;;;;;;;;;24.30;57.80;;;;;;5057384;28;19927;-52
2023/07/13 02:44:59;;;;;;;;;;;24.30;57.90;;;;;;5048880;28;19913;-53
2023/07/13 02:47:25;;;;;;;;;;;24.30;57.90;;;;;;5052846;28;19962;-53
2023/07/13 02:49:50;;;;;;;;;;;24.30;57.90;;;;;;5047369;28;19967;-53
2023/07/13 02:52:16;;;;;;;;;;;24.30;57.70;;;;;;5060272;28;19920;-53
2023/07/13 02:54:41;;;;;;;;;;;24.30;57.60;;;;;;5055221;28;19917;-53
2023/07/13 02:57:06;;;;;;;;;;;24.30;57.60;;;;;;5050891;28;20373;-53
2023/07/13 02:59:32;;;;;;;;;;;24.30;57.50;;;;;;5054673;28;19920;-53
2023/07/13 03:01:57;;;;;;;;;;;24.30;57.50;;;;;;5053222;28;19912;-53
2023/07/13 03:04:23;;;;;;;;;;;24.30;57.50;;;;;;5050083;28;20329;-54
2023/07/13 03:06:48;;;;;;;;;;;24.20;57.40;;;;;;5059081;28;20285;-53
2023/07/13 03:09:14;;;;;;;;;;;24.20;57.40;;;;;;5054482;28;19914;-53
2023/07/13 03:11:39;;;;;;;;;;;24.20;57.40;;;;;;5053254;28;20014;-53
2023/07/13 03:14:05;;;;;;;;;;;24.10;57.40;;;;;;5059196;28;20002;-53
2023/07/13 03:16:30;;;;;;;;;;;24.10;57.30;;;;;;5054905;28;20035;-53
2023/07/13 03:18:56;;;;;;;;;;;24.10;57.30;;;;;;5055514;28;19912;-53
2023/07/13 03:21:21;;;;;;;;;;;24.10;57.30;;;;;;5058351;28;20391;-54
2023/07/13 03:23:47;;;;;;;;;;;24.10;57.20;;;;;;5052700;28;19966;-53
2023/07/13 03:26:14;;;;;;;;;;;24.10;57.20;;;;;;5054556;28;19918;-53
2023/07/13 03:28:39;;;;;;;;;;;24.20;57.20;;;;;;5053962;28;19978;-53
2023/07/13 03:31:06;;;;;;;;;;;24.10;57.00;;;;;;5053576;28;19917;-53
2023/07/13 03:33:31;;;;;;;;;;;24.20;57.00;;;;;;5053619;28;19927;-53
2023/07/13 03:35:57;;;;;;;;;;;24.20;56.90;;;;;;5049928;28;19916;-54
2023/07/13 03:38:22;;;;;;;;;;;24.10;56.70;;;;;;5051969;28;20019;-54
2023/07/13 03:40:48;;;;;;;;;;;24.20;56.80;;;;;;5054439;28;19912;-53
2023/07/13 03:43:13;;;;;;;;;;;24.20;56.70;;;;;;5051702;28;20254;-54
2023/07/13 03:45:39;;;;;;;;;;;24.10;56.70;;;;;;5050746;28;19940;-53
2023/07/13 03:48:05;;;;;;;;;;;24.10;56.70;;;;;;5053751;28;19912;-53
2023/07/13 03:50:30;;;;;;;;;;;24.10;56.60;;;;;;5040361;28;19924;-54
2023/07/13 03:52:57;;;;;;;;;;;24.10;56.60;;;;;;5051212;28;19916;-53
2023/07/13 03:55:22;;;;;;;;;;;24.10;56.50;;;;;;5052030;28;19939;-54
2023/07/13 03:57:48;;;;;;;;;;;24.10;56.60;;;;;;5053639;28;19928;-53
2023/07/13 04:00:13;;;;;;;;;;;24.00;56.40;;;;;;5051057;28;20424;-53
2023/07/13 04:02:39;;;;;;;;;;;24.00;56.40;;;;;;5057200;28;20007;-53
2023/07/13 04:05:04;;;;;;;;;;;24.00;56.40;;;;;;5049811;28;19913;-53
2023/07/13 04:07:30;;;;;;;;;;;24.00;56.30;;;;;;5055723;28;19921;-53
2023/07/13 04:09:55;;;;;;;;;;;24.00;56.30;;;;;;5052140;28;19932;-53
2023/07/13 04:12:21;;;;;;;;;;;23.90;56.20;;;;;;5054267;28;19956;-53
2023/07/13 04:14:46;;;;;;;;;;;24.00;56.30;;;;;;5051522;28;19982;-53
2023/07/13 04:17:12;;;;;;;;;;;23.90;56.10;;;;;;5048659;28;19960;-53
2023/07/13 04:19:37;;;;;;;;;;;23.90;56.10;;;;;;5051637;28;19913;-54
2023/07/13 04:22:03;;;;;;;;;;;23.80;56.10;;;;;;5050091;28;19917;-53
2023/07/13 04:24:28;;;;;;;;;;;23.80;56.70;;;;;;5053440;28;19917;-53
2023/07/13 04:26:54;;;;;;;;;;;23.80;56.00;;;;;;5052138;28;19962;-53
2023/07/13 04:29:19;;;;;;;;;;;23.80;56.00;;;;;;5050498;28;19966;-54
2023/07/13 04:31:45;;;;;;;;;;;23.80;56.10;;;;;;5049727;28;20004;-53
2023/07/13 04:34:10;;;;;;;;;;;23.80;56.00;;;;;;5044159;28;20000;-53
2023/07/13 04:36:37;;;;;;;;;;;23.80;56.00;;;;;;5047815;28;20020;-53
2023/07/13 04:39:02;;;;;;;;;;;23.80;56.10;;;;;;5053060;28;19916;-53
2023/07/13 04:41:28;;;;;;;;;;;23.80;56.10;;;;;;5054558;28;19989;-54
2023/07/13 04:43:53;;;;;;;;;;;23.80;56.00;;;;;;5049509;28;20051;-53
2023/07/13 04:46:19;;;;;;;;;;;23.80;56.10;;;;;;5054387;28;19943;-53
2023/07/13 04:48:45;;;;;;;;;;;23.80;56.30;;;;;;5059245;28;19912;-53
2023/07/13 04:51:10;;;;;;;;;;;23.70;56.20;;;;;;5047218;28;19942;-54
2023/07/13 04:53:36;;;;;;;;;;;23.80;56.20;;;;;;5048918;28;20375;-54
2023/07/13 04:56:02;;;;;;;;;;;23.70;56.10;;;;;;5048788;28;19913;-53
2023/07/13 04:58:27;;;;;;;;;;;23.80;56.20;;;;;;5054426;28;19927;-53
2023/07/13 05:00:53;;;;;;;;;;;23.80;56.10;;;;;;5049557;28;20351;-53
2023/07/13 05:03:18;;;;;;;;;;;23.80;56.10;;;;;;5054693;28;19917;-53
2023/07/13 05:05:53;;;;;;;;;;;23.80;56.10;;;;;;5056357;28;19916;-54
2023/07/13 05:08:19;;;;;;;;;;;23.80;56.00;;;;;;5047678;28;19916;-54
2023/07/13 05:10:44;;;;;;;;;;;23.80;55.90;;;;;;5052409;28;19923;-53
2023/07/13 05:13:10;;;;;;;;;;;23.80;56.00;;;;;;5052202;28;20007;-54
2023/07/13 05:15:35;;;;;;;;;;;23.80;55.80;;;;;;5048276;28;19937;-53
2023/07/13 05:18:00;;;;;;;;;;;23.80;55.70;;;;;;5052296;28;20022;-53
2023/07/13 05:20:26;;;;;;;;;;;23.80;55.70;;;;;;5050268;28;19966;-53
2023/07/13 05:22:51;;;;;;;;;;;23.80;55.60;;;;;;5047878;28;19913;-53
2023/07/13 05:25:17;;;;;;;;;;;23.70;55.50;;;;;;5048446;28;19959;-53
2023/07/13 05:27:45;;;;;;;;;;;23.70;56.30;;;;;;5053681;28;19917;-53
2023/07/13 05:30:11;;;;;;;;;;;23.50;55.60;;;;;;5050774;28;19917;-53
2023/07/13 05:32:37;;;;;;;;;;;23.50;55.90;;;;;;5045425;28;20378;-53
2023/07/13 05:35:02;;;;;;;;;;;23.40;56.00;;;;;;5049543;28;19913;-54
2023/07/13 05:37:28;;;;;;;;;;;23.40;56.10;;;;;;5052357;28;20511;-54
2023/07/13 05:39:53;;;;;;;;;;;23.50;56.10;;;;;;5050149;28;19939;-53
2023/07/13 05:42:19;;;;;;;;;;;23.60;56.10;;;;;;5051514;28;19943;-54
2023/07/13 05:44:44;;;;;;;;;;;23.60;56.00;;;;;;5049114;28;19963;-54
2023/07/13 05:47:10;;;;;;;;;;;23.70;56.00;;;;;;5047935;28;20370;-53
2023/07/13 05:49:35;;;;;;;;;;;23.70;56.00;;;;;;5052345;28;20357;-53
2023/07/13 05:52:00;;;;;;;;;;;23.70;56.00;;;;;;5048757;28;19923;-53
2023/07/13 05:54:26;;;;;;;;;;;23.70;56.10;;;;;;5048033;28;19959;-54
2023/07/13 05:56:52;;;;;;;;;;;23.70;56.10;;;;;;5051175;28;20452;-53
2023/07/13 05:59:17;;;;;;;;;;;23.70;56.20;;;;;;5054807;28;19917;-53
2023/07/13 06:01:43;;;;;;;;;;;23.70;56.40;;;;;;5050013;28;19927;-53
2023/07/13 06:04:08;;;;;;;;;;;23.60;56.40;;;;;;5050639;28;20327;-54
2023/07/13 06:06:34;;;;;;;;;;;23.60;56.70;;;;;;5048111;28;19917;-53
2023/07/13 06:08:59;;;;;;;;;;;23.60;56.80;;;;;;5052496;28;19993;-53
2023/07/13 06:11:25;;;;;;;;;;;23.60;56.90;;;;;;5053309;28;19917;-54
2023/07/13 06:13:51;;;;;;;;;;;23.70;56.90;;;;;;5054914;28;19920;-54
2023/07/13 06:16:16;;;;;;;;;;;23.70;56.70;;;;;;5051912;28;19932;-53
2023/07/13 06:18:42;;;;;;;;;;;23.70;56.80;;;;;;5048044;28;20443;-53
2023/07/13 06:21:08;;;;;;;;;;;23.70;56.80;;;;;;5048247;28;19974;-54
2023/07/13 06:23:33;;;;;;;;;;;23.70;56.90;;;;;;5047309;28;20022;-53
2023/07/13 06:25:59;;;;;;;;;;;23.70;56.90;;;;;;5054233;28;24138;-53
2023/07/13 06:28:24;;;;;;;;;;;23.60;57.00;;;;;;5053213;28;20354;-54
2023/07/13 06:30:50;;;;;;;;;;;23.60;57.20;;;;;;5052997;28;20439;-53
2023/07/13 06:33:15;;;;;;;;;;;23.60;57.20;;;;;;5053898;28;19959;-54
2023/07/13 06:35:41;;;;;;;;;;;23.60;57.20;;;;;;5057511;28;20018;-54
2023/07/13 06:38:06;;;;;;;;;;;23.60;57.20;;;;;;5045513;28;20023;-54
2023/07/13 06:40:32;;;;;;;;;;;23.60;57.20;;;;;;5053141;28;19912;-54
2023/07/13 06:42:57;;;;;;;;;;;23.60;57.40;;;;;;5054485;28;19935;-54
2023/07/13 06:45:23;;;;;;;;;;;23.60;57.40;;;;;;5052206;28;19923;-54
2023/07/13 06:47:49;;;;;;;;;;;23.60;57.50;;;;;;5055619;28;19950;-53
2023/07/13 06:50:14;;;;;;;;;;;23.60;57.40;;;;;;5051104;28;19970;-54
2023/07/13 06:52:40;;;;;;;;;;;23.60;57.40;;;;;;5053530;28;19917;-54
2023/07/13 06:55:06;;;;;;;;;;;23.70;57.50;;;;;;5054182;28;19915;-54
2023/07/13 06:57:31;;;;;;;;;;;23.70;57.50;;;;;;5051818;28;19929;-53
2023/07/13 06:59:57;;;;;;;;;;;23.60;57.50;;;;;;5052723;28;20297;-53
2023/07/13 07:02:22;;;;;;;;;;;23.60;57.50;;;;;;5056093;28;20341;-54
2023/07/13 07:04:48;;;;;;;;;;;23.70;57.40;;;;;;5052329;28;19927;-54
2023/07/13 07:07:13;;;;;;;;;;;23.70;57.40;;;;;;5050617;28;19920;-54
2023/07/13 07:09:39;;;;;;;;;;;23.70;57.50;;;;;;5055692;28;19917;-54
2023/07/13 07:12:04;;;;;;;;;;;23.60;57.50;;;;;;5057679;28;19912;-56
2023/07/13 07:14:30;;;;;;;;;;;23.60;57.80;;;;;;5052412;28;19953;-55
2023/07/13 07:16:55;;;;;;;;;;;23.60;57.70;;;;;;5051944;28;20373;-55
2023/07/13 07:19:21;;;;;;;;;;;23.70;57.60;;;;;;5056219;28;19920;-54
2023/07/13 07:21:46;;;;;;;;;;;23.70;57.70;;;;;;5052901;28;19952;-53
2023/07/13 07:24:12;;;;;;;;;;;23.60;57.70;;;;;;5056664;28;20349;-53
2023/07/13 07:26:37;;;;;;;;;;;23.60;57.70;;;;;;5059644;28;19913;-54
2023/07/13 07:29:03;;;;;;;;;;;23.60;58.50;;;;;;5055944;28;20614;-54
2023/07/13 07:31:28;;;;;;;;;;;23.60;57.80;;;;;;5055104;28;19963;-54
2023/07/13 07:33:54;;;;;;;;;;;23.60;57.80;;;;;;5064383;28;19917;-53
2023/07/13 07:36:19;;;;;;;;;;;23.60;57.80;;;;;;5056220;28;19965;-53
2023/07/13 07:38:44;;;;;;;;;;;23.60;58.00;;;;;;5060817;28;20004;-54
2023/07/13 07:41:11;;;;;;;;;;;23.50;57.90;;;;;;5056669;28;19912;-53
2023/07/13 07:43:37;;;;;;;;;;;23.50;58.00;;;;;;5053797;28;20407;-54
2023/07/13 07:46:02;;;;;;;;;;;23.50;58.00;;;;;;5051846;28;19924;-54
2023/07/13 07:48:28;;;;;;;;;;;23.50;58.00;;;;;;5052127;28;20015;-54
2023/07/13 07:50:53;;;;;;;;;;;23.50;57.90;;;;;;5053369;28;20269;-55
2023/07/13 07:53:19;;;;;;;;;;;23.60;58.10;;;;;;5054299;28;20018;-53
2023/07/13 07:55:45;;;;;;;;;;;23.60;58.20;;;;;;5058520;28;19982;-54
2023/07/13 07:58:10;;;;;;;;;;;23.60;58.10;;;;;;5051522;28;20312;-54
2023/07/13 08:00:36;;;;;;;;;;;23.50;58.20;;;;;;5060210;28;19913;-54
2023/07/13 08:03:01;;;;;;;;;;;23.50;58.10;;;;;;5059822;28;19912;-55
2023/07/13 08:05:27;;;;;;;;;;;23.60;58.20;;;;;;5058223;28;20019;-54
2023/07/13 08:07:52;;;;;;;;;;;23.60;58.10;;;;;;5058833;28;19917;-55
2023/07/13 08:10:18;;;;;;;;;;;23.60;58.00;;;;;;5053418;28;19913;-55
2023/07/13 08:12:43;;;;;;;;;;;23.70;58.10;;;;;;5053533;28;19917;-54
2023/07/13 08:15:11;;;;;;;;;;;23.70;58.10;;;;;;5055897;28;20005;-54
2023/07/13 08:17:36;;;;;;;;;;;23.70;58.10;;;;;;5054421;28;19917;-55
2023/07/13 08:20:02;;;;;;;;;;;23.70;58.90;;;;;;5058337;28;19924;-54
2023/07/13 08:22:27;;;;;;;;;;;23.70;58.20;;;;;;5062788;28;19923;-55
2023/07/13 08:24:56;;;;;;;;;;;23.60;58.00;;;;;;5049363;28;19916;-54
2023/07/13 08:27:24;;;;;;;;;;;23.60;58.20;;;;;;5060382;28;20405;-54
2023/07/13 08:29:50;;;;;;;;;;;23.60;58.50;;;;;;5055092;28;20384;-55
2023/07/13 08:32:15;;;;;;;;;;;23.60;58.40;;;;;;5053839;28;19920;-55
2023/07/13 08:34:41;;;;;;;;;;;23.60;58.40;;;;;;5056396;28;19921;-54
2023/07/13 08:37:06;;;;;;;;;;;23.60;58.40;;;;;;5056153;28;19972;-54
2023/07/13 08:39:32;;;;;;;;;;;23.60;58.20;;;;;;5058521;28;19912;-55
2023/07/13 08:41:59;;;;;;;;;;;23.60;58.10;;;;;;5052768;28;20390;-55
2023/07/13 08:44:47;;;;;;;;;;;23.60;58.00;;;;;;5066529;28;20019;-55
2023/07/13 08:47:12;;;;;;;;;;;23.60;58.00;;;;;;5052759;28;19935;-54
2023/07/13 08:49:37;;;;;;;;;;;23.70;58.10;;;;;;5051226;28;19920;-54
2023/07/13 08:52:05;;;;;;;;;;;23.70;58.10;;;;;;5050607;28;20421;-54
2023/07/13 08:54:32;;;;;;;;;;;23.70;58.00;;;;;;5052068;28;20339;-54
2023/07/13 08:56:58;;;;;;;;;;;23.70;57.90;;;;;;5052462;28;20027;-55
2023/07/13 08:59:25;;;;;;;;;;;23.80;58.10;;;;;;5054447;28;20055;-54
2023/07/13 09:01:57;;;;;;;;;;;23.70;58.10;;;;;;5054645;28;20040;-53
2023/07/13 09:04:23;;;;;;;;;;;23.60;58.00;;;;;;5052229;28;20066;-54
2023/07/13 09:06:55;;;;;;;;;;;23.60;58.00;;;;;;5056534;28;20518;-54
2023/07/13 09:09:39;;;;;;;;;;;23.70;58.00;;;;;;5047798;28;19912;-54
2023/07/13 09:12:11;;;;;;;;;;;23.70;57.80;;;;;;5052302;28;20003;-54
2023/07/13 09:14:44;;;;;;;;;;;23.70;57.80;;;;;;5051780;28;19951;-55
2023/07/13 09:17:14;;;;;;;;;;;23.80;57.70;;;;;;5045489;28;20390;-54
2023/07/13 09:19:40;;;;;;;;;;;23.80;57.50;;;;;;5054437;28;19913;-54
2023/07/13 09:22:06;;;;;;;;;;;23.70;57.40;;;;;;5062609;28;19920;-54
2023/07/13 09:24:38;;;;;;;;;;;23.70;57.20;;;;;;5064838;28;19925;-55
2023/07/13 09:27:30;;;;;;;;;;;23.70;57.10;;;;;;5051509;28;19917;-54
2023/07/13 09:30:03;;;;;;;;;;;23.70;56.90;;;;;;5050909;28;19960;-54
2023/07/13 09:32:28;;;;;;;;;;;23.70;56.80;;;;;;5050395;28;19917;-55
2023/07/13 09:34:54;;;;;;;;;;;23.70;56.70;;;;;;5052526;28;19942;-54
2023/07/13 09:37:20;;;;;;;;;;;23.70;56.60;;;;;;5057216;28;19916;-54
2023/07/13 09:39:46;;;;;;;;;;;23.70;56.50;;;;;;5053244;28;20372;-55
2023/07/13 09:42:15;;;;;;;;;;;23.70;56.40;;;;;;5053741;28;19963;-54
2023/07/13 09:44:47;;;;;;;;;;;23.70;56.30;;;;;;5051604;28;19934;-54
2023/07/13 09:47:19;;;;;;;;;;;23.80;56.30;;;;;;5053465;28;19917;-55
2023/07/13 09:49:45;;;;;;;;;;;23.80;56.10;;;;;;5054375;28;20262;-55
2023/07/13 09:52:11;;;;;;;;;;;23.80;56.10;;;;;;5052531;28;20353;-55
2023/07/13 09:54:37;;;;;;;;;;;23.80;56.00;;;;;;5060756;28;19958;-54
2023/07/13 09:57:03;;;;;;;;;;;23.80;56.10;;;;;;5049888;28;20377;-54
2023/07/13 09:59:49;;;;;;;;;;;23.90;56.00;;;;;;5050367;28;19924;-54
2023/07/13 10:02:29;;;;;;;;;;;23.90;55.90;;;;;;5065348;28;19923;-54
2023/07/13 10:05:03;;;;;;;;;;;24.00;55.60;;;;;;5063002;28;19952;-54
2023/07/13 10:07:28;;;;;;;;;;;24.00;55.80;;;;;;5069345;28;19958;-54
2023/07/13 10:09:54;;;;;;;;;;;24.00;55.70;;;;;;5056099;28;19917;-54
2023/07/13 10:12:20;;;;;;;;;;;24.00;55.50;;;;;;5057250;28;19921;-55
2023/07/13 10:14:46;;;;;;;;;;;24.10;55.20;;;;;;5051603;28;19959;-54
2023/07/13 10:17:12;;;;;;;;;;;24.10;55.30;;;;;;5055788;28;19920;-55
2023/07/13 10:19:37;;;;;;;;;;;24.10;55.20;;;;;;5059435;28;19919;-54
2023/07/13 10:22:09;;;;;;;;;;;24.10;54.80;;;;;;5060828;28;19921;-54
2023/07/13 10:24:37;;;;;;;;;;;24.00;54.70;;;;;;5066912;28;19913;-55
2023/07/13 10:27:11;;;;;;;;;;;23.90;54.70;;;;;;5057117;28;19912;-54
2023/07/13 10:29:38;;;;;;;;;;;23.90;54.80;;;;;;5060192;28;19913;-54
2023/07/13 10:32:08;;;;;;;;;;;24.00;54.70;;;;;;5053865;28;19920;-54
2023/07/13 10:34:34;;;;;;;;;;;24.00;54.50;;;;;;5055831;28;19917;-54
2023/07/13 10:36:59;;;;;;;;;;;24.10;54.50;;;;;;5054310;28;20026;-55
2023/07/13 10:39:26;;;;;;;;;;;24.20;54.20;;;;;;5054311;28;20648;-55
2023/07/13 10:41:53;;;;;;;;;;;24.10;53.70;;;;;;5057615;28;19927;-54
2023/07/13 10:44:26;;;;;;;;;;;24.10;53.70;;;;;;5057351;28;20320;-54
2023/07/13 10:46:58;;;;;;;;;;;24.10;53.50;;;;;;5061404;28;19921;-54
2023/07/13 10:49:24;;;;;;;;;;;24.10;53.50;;;;;;5070641;28;20329;-55
2023/07/13 10:51:51;;;;;;;;;;;24.10;53.30;;;;;;5058129;28;20015;-54
2023/07/13 10:54:47;;;;;;;;;;;24.10;53.20;;;;;;5055661;28;20292;-54
2023/07/13 10:57:12;;;;;;;;;;;24.10;53.20;;;;;;5042121;28;20270;-54
2023/07/13 10:59:37;;;;;;;;;;;24.10;52.90;;;;;;5063294;28;19920;-54
2023/07/13 11:02:04;;;;;;;;;;;24.20;52.80;;;;;;5071226;28;19916;-54
2023/07/13 11:04:39;;;;;;;;;;;24.20;52.70;;;;;;5062988;28;19940;-55
2023/07/13 11:07:10;;;;;;;;;;;24.20;52.70;;;;;;5059747;28;20540;-54
2023/07/13 11:09:40;;;;;;;;;;;24.20;52.50;;;;;;5056940;28;19912;-55
2023/07/13 11:12:07;;;;;;;;;;;24.30;52.50;;;;;;5064360;28;19920;-55
2023/07/13 11:14:42;;;;;;;;;;;24.30;52.50;;;;;;5054523;28;20415;-55
2023/07/13 11:17:26;;;;;;;;;;;24.30;52.20;;;;;;5054902;28;20438;-54
2023/07/13 11:19:54;;;;;;;;;;;24.20;52.00;;;;;;5052063;28;20336;-54
2023/07/13 11:22:24;;;;;;;;;;;24.20;52.00;;;;;;5053216;28;20418;-55
2023/07/13 11:24:50;;;;;;;;;;;24.20;51.70;;;;;;5053074;28;19921;-55
2023/07/13 11:27:36;;;;;;;;;;;24.30;51.60;;;;;;5052475;28;19912;-55
2023/07/13 11:30:22;;;;;;;;;;;24.40;51.50;;;;;;5065932;28;19986;-55
2023/07/13 11:32:51;;;;;;;;;;;24.40;51.20;;;;;;5049831;28;20344;-55
2023/07/13 11:35:20;;;;;;;;;;;24.40;50.90;;;;;;5058644;28;20265;-55
2023/07/13 11:37:46;;;;;;;;;;;24.40;50.60;;;;;;5059438;28;19921;-55
2023/07/13 11:40:12;;;;;;;;;;;24.40;50.20;;;;;;5054194;28;19928;-55
2023/07/13 11:42:38;;;;;;;;;;;24.40;50.30;;;;;;5054994;28;20357;-55
2023/07/13 11:45:11;;;;;;;;;;;24.50;50.40;;;;;;5051562;28;19923;-55
2023/07/13 11:47:39;;;;;;;;;;;24.40;50.20;;;;;;5054504;28;19966;-55
2023/07/13 11:50:06;;;;;;;;;;;24.40;50.40;;;;;;5054326;28;19924;-56
2023/07/13 11:52:32;;;;;;;;;;;24.40;50.30;;;;;;5057846;28;19974;-54
2023/07/13 11:54:58;;;;;;;;;;;24.40;50.30;;;;;;5053267;28;20015;-55
2023/07/13 11:57:26;;;;;;;;;;;24.40;50.30;;;;;;5069052;28;20448;-54
2023/07/13 11:59:51;;;;;;;;;;;24.40;50.20;;;;;;5053185;28;19919;-55
2023/07/13 12:02:28;;;;;;;;;;;24.30;50.10;;;;;;5057247;28;19991;-55
2023/07/13 12:04:53;;;;;;;;;;;24.40;50.00;;;;;;5059995;28;20319;-54
2023/07/13 12:07:18;;;;;;;;;;;24.50;50.40;;;;;;5060802;28;19967;-54
2023/07/13 12:09:44;;;;;;;;;;;24.50;50.30;;;;;;5055664;28;20273;-54
2023/07/13 12:12:10;;;;;;;;;;;24.60;50.20;;;;;;5065128;28;19965;-54
2023/07/13 12:14:36;;;;;;;;;;;24.60;50.00;;;;;;5059261;28;20420;-54
2023/07/13 12:17:01;;;;;;;;;;;24.50;50.00;;;;;;5053237;28;20015;-54
2023/07/13 12:19:27;;;;;;;;;;;24.50;50.30;;;;;;5062822;28;19912;-54
2023/07/13 12:21:53;;;;;;;;;;;24.40;50.20;;;;;;5055120;28;19944;-54
2023/07/13 12:24:19;;;;;;;;;;;24.50;50.30;;;;;;5058283;28;19913;-54
2023/07/13 12:26:45;;;;;;;;;;;24.50;50.40;;;;;;5055782;28;19923;-54
2023/07/13 12:29:11;;;;;;;;;;;24.40;51.00;;;;;;5067951;28;19912;-54
2023/07/13 12:31:38;;;;;;;;;;;24.40;51.60;;;;;;5062749;28;19955;-53
2023/07/13 12:34:16;;;;;;;;;;;24.40;52.10;;;;;;5059303;28;19912;-54
2023/07/13 12:36:51;;;;;;;;;;;24.50;52.40;;;;;;5055628;28;19962;-55
2023/07/13 12:39:29;;;;;;;;;;;24.60;52.40;;;;;;5052524;28;20439;-54
2023/07/13 12:41:59;;;;;;;;;;;24.60;52.50;;;;;;5052451;28;19913;-54
2023/07/13 12:44:26;;;;;;;;;;;24.70;52.40;;;;;;5061210;28;19923;-54
2023/07/13 12:46:56;;;;;;;;;;;24.70;52.50;;;;;;5054591;28;20019;-54
2023/07/13 12:49:28;;;;;;;;;;;24.70;52.40;;;;;;5052347;28;19917;-54
2023/07/13 12:51:59;;;;;;;;;;;24.70;52.70;;;;;;5054267;28;19932;-54
2023/07/13 12:54:24;;;;;;;;;;;24.80;52.60;;;;;;5050947;28;19923;-54
2023/07/13 12:56:52;;;;;;;;;;;24.80;52.70;;;;;;5065715;28;19916;-54
2023/07/13 12:59:18;;;;;;;;;;;24.80;53.00;;;;;;5048954;28;19979;-55
2023/07/13 13:01:44;;;;;;;;;;;24.90;53.10;;;;;;5059504;28;20335;-54
2023/07/13 13:04:11;;;;;;;;;;;24.90;53.20;;;;;;5053783;28;20015;-54
2023/07/13 13:06:37;;;;;;;;;;;24.90;53.30;;;;;;5057934;28;19912;-54
2023/07/13 13:09:03;;;;;;;;;;;24.90;53.40;;;;;;5059268;28;19912;-54
2023/07/13 13:11:29;;;;;;;;;;;24.90;53.60;;;;;;5054652;28;19920;-54
2023/07/13 13:13:55;;;;;;;;;;;24.80;53.70;;;;;;5062203;28;19927;-54
2023/07/13 13:16:20;;;;;;;;;;;24.80;53.80;;;;;;5050821;28;19916;-54
2023/07/13 13:18:46;;;;;;;;;;;24.80;54.10;;;;;;5056059;28;19963;-54
2023/07/13 13:21:11;;;;;;;;;;;24.90;54.20;;;;;;5055825;28;22094;-55
2023/07/13 13:23:37;;;;;;;;;;;24.90;54.20;;;;;;5051380;28;19917;-54
2023/07/13 13:26:02;;;;;;;;;;;24.80;54.40;;;;;;5052748;28;19913;-55
2023/07/13 13:28:28;;;;;;;;;;;24.90;54.50;;;;;;5054271;28;20381;-53
2023/07/13 13:30:55;;;;;;;;;;;24.90;54.40;;;;;;5058714;28;19917;-54
2023/07/13 13:33:21;;;;;;;;;;;24.90;54.40;;;;;;5051748;28;19916;-54
2023/07/13 13:35:47;;;;;;;;;;;24.90;54.40;;;;;;5047041;28;19913;-53
2023/07/13 13:38:16;;;;;;;;;;;24.90;54.50;;;;;;5047683;28;19927;-54
2023/07/13 13:40:42;;;;;;;;;;;24.90;54.30;;;;;;5045982;28;19924;-55
2023/07/13 13:43:15;;;;;;;;;;;24.90;54.50;;;;;;5051141;28;19916;-55
2023/07/13 13:45:40;;;;;;;;;;;24.90;54.50;;;;;;5061613;28;19944;-54
2023/07/13 13:48:06;;;;;;;;;;;24.90;54.40;;;;;;5050430;28;19955;-53
2023/07/13 13:50:32;;;;;;;;;;;24.90;54.50;;;;;;5052735;28;19920;-54
2023/07/13 13:52:57;;;;;;;;;;;24.90;54.40;;;;;;5050202;28;19962;-54
2023/07/13 13:55:24;;;;;;;;;;;24.90;54.40;;;;;;5053658;28;20388;-53
2023/07/13 13:57:49;;;;;;;;;;;24.90;54.40;;;;;;5053955;28;20026;-54
2023/07/13 14:00:16;;;;;;;;;;;24.90;54.40;;;;;;5051993;28;19992;-55
2023/07/13 14:02:47;;;;;;;;;;;24.80;54.30;;;;;;5054709;28;20262;-54
2023/07/13 14:05:13;;;;;;;;;;;24.90;54.40;;;;;;5055285;28;20042;-54
2023/07/13 14:07:39;;;;;;;;;;;24.90;54.30;;;;;;5058986;28;19923;-54
2023/07/13 14:10:06;;;;;;;;;;;24.80;54.90;;;;;;5061280;28;20376;-54
2023/07/13 14:12:32;;;;;;;;;;;24.80;54.50;;;;;;5050792;28;19999;-54
2023/07/13 14:14:58;;;;;;;;;;;24.80;54.30;;;;;;5050545;28;19955;-54